Maxton, North Carolina
Current Conditions -  °F | °C
As of 3:52 AM on Thursday 27 Nov 2014 (Local Time) from KMEB Reporting Station
Broken Clouds Broken Clouds  
Wind Chill: 41°   Ceiling: 10000
Heat Index: 41°   Visibility: 9mi
Dew Point: 40°   Wind: 3mph
Humidity: 96%   Direction: 180°S
Pressure: 30.04"   Gusts: NA
Location:  34.74°N, 79.35°W
Report Text: KMEB 270852Z AUTO 18003KT 9SM BKN100 05/04 A3004 RMK AO2 SLP172 T00500044 58010
Loading
Personal Weather Stations






























Interactive Weather Map New forecast layout! Learn more

10-Day Weather Forecast

Advertisements
Track Severe Weather on mobile